createdAt,value
2019-04-14T00:00:29.238Z,5.70
2019-04-14T00:03:11.130Z,5.70
2019-04-14T00:05:40.853Z,5.60
2019-04-14T00:08:11.299Z,5.60
2019-04-14T00:10:40.248Z,5.60
2019-04-14T00:13:09.124Z,5.60
2019-04-14T00:15:42.706Z,5.50
2019-04-14T00:18:09.675Z,5.50
2019-04-14T00:20:38.699Z,5.50
2019-04-14T00:23:08.771Z,5.40
2019-04-14T00:25:37.693Z,5.40
2019-04-14T00:28:07.347Z,5.40
2019-04-14T00:30:36.364Z,5.40
2019-04-14T00:33:06.295Z,5.30
2019-04-14T00:35:42.759Z,5.30
2019-04-14T00:38:21.825Z,5.30
2019-04-14T00:41:00.634Z,5.30
2019-04-14T00:43:35.991Z,5.30
2019-04-14T00:46:11.102Z,5.20
2019-04-14T00:48:40.945Z,5.20
2019-04-14T00:51:11.178Z,5.20
2019-04-14T00:53:40.326Z,5.20
2019-04-14T00:56:09.103Z,5.20
2019-04-14T00:58:38.947Z,5.10
2019-04-14T01:01:08.964Z,5.10
2019-04-14T01:03:38.024Z,5.10
2019-04-14T01:06:07.646Z,5.10
2019-04-14T01:08:36.688Z,5.00
2019-04-14T01:11:05.593Z,5.00
2019-04-14T01:13:35.385Z,5.00
2019-04-14T01:16:11.546Z,5.00
2019-04-14T01:18:34.941Z,4.90
2019-04-14T01:21:04.602Z,4.90
2019-04-14T01:23:34.706Z,4.90
2019-04-14T01:26:04.930Z,4.90
2019-04-14T01:28:33.943Z,4.90
2019-04-14T01:31:03.385Z,4.80
2019-04-14T01:33:33.595Z,4.90
2019-04-14T01:36:03.837Z,4.80
2019-04-14T01:38:32.838Z,4.80
2019-04-14T01:41:02.189Z,4.80
2019-04-14T01:43:32.110Z,4.80
2019-04-14T01:46:09.704Z,4.70
2019-04-14T01:48:32.459Z,4.70
2019-04-14T01:51:20.533Z,4.70
2019-04-14T01:54:10.626Z,4.70
2019-04-14T01:57:04.643Z,4.70
2019-04-14T01:59:34.659Z,4.60
2019-04-14T02:02:05.156Z,4.60
2019-04-14T02:04:33.974Z,4.60
2019-04-14T02:07:03.809Z,4.60
2019-04-14T02:09:33.593Z,4.50
2019-04-14T02:12:03.742Z,4.50
2019-04-14T02:14:32.831Z,4.50
2019-04-14T02:17:04.220Z,4.50
2019-04-14T02:19:32.751Z,4.50
2019-04-14T02:22:02.726Z,4.50
2019-04-14T02:24:32.984Z,4.50
2019-04-14T02:27:03.368Z,4.50
2019-04-14T02:29:33.911Z,4.50
2019-04-14T02:35:06.248Z,4.40
2019-04-14T02:40:20.924Z,4.40
2019-04-14T02:42:36.667Z,4.40
2019-04-14T02:45:00.700Z,4.40
2019-04-14T02:52:37.486Z,4.30
2019-04-14T02:55:15.866Z,4.30
2019-04-14T02:57:38.381Z,4.30
2019-04-14T03:00:09.133Z,4.20
2019-04-14T03:05:05.005Z,4.20
2019-04-14T03:07:36.116Z,4.20
2019-04-14T03:10:01.237Z,4.20
2019-04-14T03:12:38.428Z,4.10
2019-04-14T03:15:08.037Z,4.20
2019-04-14T03:18:24.458Z,4.10
2019-04-14T03:21:13.438Z,4.10
2019-04-14T03:24:12.752Z,4.10
2019-04-14T03:26:44.245Z,4.10
2019-04-14T03:29:20.589Z,4.00
2019-04-14T03:39:23.488Z,4.00
2019-04-14T03:41:54.798Z,4.00
2019-04-14T03:49:34.733Z,4.00
2019-04-14T03:51:57.948Z,4.00
2019-04-14T03:54:20.203Z,3.90
2019-04-14T03:56:48.927Z,3.90
2019-04-14T03:59:19.456Z,3.90
2019-04-14T04:01:49.934Z,3.90
2019-04-14T04:04:20.405Z,3.90
2019-04-14T04:06:50.874Z,3.90
2019-04-14T04:09:21.915Z,3.90
2019-04-14T04:11:52.055Z,3.90
2019-04-14T04:14:21.031Z,3.80
2019-04-14T04:16:59.372Z,3.80
2019-04-14T04:19:51.322Z,3.80
2019-04-14T04:22:48.619Z,3.80
2019-04-14T04:25:26.648Z,3.80
2019-04-14T04:28:16.723Z,3.70
2019-04-14T04:31:00.559Z,3.80
2019-04-14T04:33:37.229Z,3.80
2019-04-14T04:36:13.989Z,3.70
2019-04-14T04:39:06.018Z,3.70
2019-04-14T04:41:34.988Z,3.70
2019-04-14T04:44:05.080Z,3.70
2019-04-14T04:46:53.134Z,3.70
2019-04-14T04:49:26.036Z,3.70
2019-04-14T04:51:53.036Z,3.70
2019-04-14T04:54:22.099Z,3.70
2019-04-14T04:56:53.768Z,3.60
2019-04-14T04:59:23.472Z,3.60
2019-04-14T05:01:53.774Z,3.60
2019-04-14T05:04:22.800Z,3.60
2019-04-14T05:07:01.653Z,3.60
2019-04-14T05:10:05.116Z,3.60
2019-04-14T05:12:50.170Z,3.60
2019-04-14T05:15:42.314Z,3.60
2019-04-14T05:18:16.178Z,3.60
2019-04-14T05:20:46.321Z,3.60
2019-04-14T05:23:15.404Z,3.60
2019-04-14T05:25:45.224Z,3.60
2019-04-14T05:28:15.465Z,3.60
2019-04-14T05:30:45.728Z,3.60
2019-04-14T05:33:14.648Z,3.60
2019-04-14T05:35:44.524Z,3.60
2019-04-14T05:38:14.663Z,3.60
2019-04-14T05:40:43.595Z,3.60
2019-04-14T05:43:17.120Z,3.70
2019-04-14T05:45:43.691Z,3.70
2019-04-14T05:48:13.845Z,3.70
2019-04-14T05:50:42.956Z,3.80
2019-04-14T05:53:13.140Z,3.80
2019-04-14T05:55:42.167Z,3.80
2019-04-14T05:58:12.155Z,3.80
2019-04-14T06:00:43.817Z,3.90
2019-04-14T06:03:14.559Z,3.90
2019-04-14T06:05:43.541Z,3.90
2019-04-14T06:08:12.539Z,3.90
2019-04-14T06:10:41.473Z,4.00
2019-04-14T06:13:11.788Z,4.10
2019-04-14T06:15:40.928Z,4.10
2019-04-14T06:18:09.852Z,4.10
2019-04-14T06:20:38.659Z,4.20
2019-04-14T06:23:07.550Z,4.20
2019-04-14T06:25:36.784Z,4.30
2019-04-14T06:28:05.743Z,4.30
2019-04-14T06:31:09.216Z,4.40
2019-04-14T06:33:55.955Z,4.40
2019-04-14T06:36:43.963Z,4.50
2019-04-14T06:39:16.603Z,4.60
2019-04-14T06:41:45.628Z,4.60
2019-04-14T06:44:14.585Z,4.70
2019-04-14T06:46:43.589Z,4.70
2019-04-14T06:49:12.547Z,4.80
2019-04-14T06:51:41.545Z,4.80
2019-04-14T06:54:10.464Z,4.90
2019-04-14T06:56:39.218Z,5.00
2019-04-14T06:59:08.236Z,5.10
2019-04-14T07:01:39.004Z,5.10
2019-04-14T07:04:07.928Z,5.20
2019-04-14T07:06:36.884Z,5.30
2019-04-14T07:09:06.914Z,5.30
2019-04-14T07:11:35.835Z,5.40
2019-04-14T07:14:04.744Z,5.50
2019-04-14T07:16:33.697Z,5.60
2019-04-14T07:19:02.575Z,5.70
2019-04-14T07:21:31.471Z,5.80
2019-04-14T07:24:00.448Z,5.90
2019-04-14T07:26:29.263Z,6.00
2019-04-14T07:28:58.293Z,6.10
2019-04-14T07:31:39.957Z,6.20
2019-04-14T07:34:26.780Z,6.30
2019-04-14T07:37:19.116Z,6.40
2019-04-14T07:39:57.462Z,6.50
2019-04-14T07:42:48.672Z,6.70
2019-04-14T07:45:36.771Z,6.80
2019-04-14T07:48:11.491Z,7.00
2019-04-14T07:51:01.987Z,7.20
2019-04-14T07:53:45.225Z,7.30
2019-04-14T07:56:32.333Z,7.40
2019-04-14T07:59:20.324Z,7.60
2019-04-14T08:02:14.393Z,7.90
2019-04-14T08:04:51.597Z,8.30
2019-04-14T08:07:20.752Z,8.70
2019-04-14T08:09:49.685Z,9.20
2019-04-14T08:12:18.591Z,9.80
2019-04-14T08:14:47.421Z,10.50
2019-04-14T08:17:16.403Z,11.20
2019-04-14T08:19:45.324Z,12.10
2019-04-14T08:22:14.304Z,13.00
2019-04-14T08:24:43.324Z,13.80
2019-04-14T08:27:12.392Z,14.60
2019-04-14T08:29:41.384Z,15.20
2019-04-14T08:32:10.321Z,15.90
2019-04-14T08:34:39.287Z,16.40
2019-04-14T08:37:08.240Z,16.90
2019-04-14T08:39:37.146Z,17.00
2019-04-14T08:42:31.277Z,17.30
2019-04-14T08:45:06.105Z,17.60
2019-04-14T08:48:00.027Z,17.90
2019-04-14T08:50:39.621Z,18.20
2019-04-14T08:53:10.296Z,18.30
2019-04-14T08:55:56.893Z,18.50
2019-04-14T08:58:44.040Z,18.50
2019-04-14T09:01:25.943Z,18.50
2019-04-14T09:04:04.872Z,18.50
2019-04-14T09:07:01.911Z,18.70
2019-04-14T09:09:34.502Z,18.80
2019-04-14T09:12:15.522Z,19.10
2019-04-14T09:14:37.233Z,19.20
2019-04-14T09:17:07.529Z,19.40
2019-04-14T09:19:36.388Z,19.50
2019-04-14T09:22:05.257Z,19.70
2019-04-14T09:24:34.128Z,19.70
2019-04-14T09:27:03.184Z,19.70
2019-04-14T09:29:32.013Z,19.70
2019-04-14T09:32:01.176Z,19.80
2019-04-14T09:34:30.064Z,19.90
2019-04-14T09:36:58.887Z,20.00
2019-04-14T09:39:27.827Z,20.10
2019-04-14T09:41:56.743Z,20.30
2019-04-14T09:44:25.617Z,20.50
2019-04-14T09:46:54.515Z,20.60
2019-04-14T09:49:23.441Z,20.70
2019-04-14T09:51:52.353Z,20.80
2019-04-14T09:54:21.225Z,20.70
2019-04-14T09:56:50.188Z,20.70
2019-04-14T09:59:19.192Z,20.60
2019-04-14T10:01:48.117Z,20.70
2019-04-14T10:04:17.147Z,20.70
2019-04-14T10:06:46.002Z,20.80
2019-04-14T10:09:15.057Z,20.80
2019-04-14T10:11:48.996Z,20.80
2019-04-14T10:14:14.596Z,20.70
2019-04-14T10:16:43.430Z,20.50
2019-04-14T10:19:12.235Z,20.50
2019-04-14T10:21:41.233Z,20.40
2019-04-14T10:24:10.212Z,20.30
2019-04-14T10:26:39.041Z,20.20
2019-04-14T10:29:07.891Z,20.10
2019-04-14T10:31:36.768Z,20.10
2019-04-14T10:34:05.657Z,20.20
2019-04-14T10:36:34.640Z,20.20
2019-04-14T10:39:05.425Z,20.30
2019-04-14T10:41:34.201Z,20.20
2019-04-14T10:44:03.125Z,20.30
2019-04-14T10:46:32.102Z,20.30
2019-04-14T10:49:01.016Z,20.40
2019-04-14T10:51:33.727Z,20.50
2019-04-14T10:54:00.699Z,20.60
2019-04-14T10:56:29.664Z,20.70
2019-04-14T10:58:58.492Z,20.70
2019-04-14T11:01:27.453Z,20.90
2019-04-14T11:03:56.473Z,20.90
2019-04-14T11:06:50.556Z,21.00
2019-04-14T11:09:19.501Z,21.10
2019-04-14T11:11:48.505Z,21.30
2019-04-14T11:14:17.368Z,21.40
2019-04-14T11:16:46.243Z,21.40
2019-04-14T11:19:15.165Z,21.50
2019-04-14T11:21:44.056Z,21.70
2019-04-14T11:24:12.935Z,21.80
2019-04-14T11:26:41.789Z,21.90
2019-04-14T11:29:10.589Z,21.90
2019-04-14T11:32:10.429Z,22.00
2019-04-14T11:35:01.308Z,22.00
2019-04-14T11:37:46.232Z,22.10
2019-04-14T11:40:18.092Z,22.10
2019-04-14T11:42:52.483Z,22.10
2019-04-14T11:45:17.672Z,22.30
2019-04-14T11:47:46.643Z,22.40
2019-04-14T11:50:17.024Z,22.40
2019-04-14T11:52:45.957Z,22.60
2019-04-14T11:55:14.763Z,22.80
2019-04-14T11:57:43.722Z,22.80
2019-04-14T12:00:43.937Z,22.70
2019-04-14T12:03:32.484Z,22.70
2019-04-14T12:06:23.655Z,22.70
2019-04-14T12:08:59.293Z,22.80
2019-04-14T12:11:28.228Z,22.90
2019-04-14T12:13:57.216Z,23.10
2019-04-14T12:16:26.184Z,23.20
2019-04-14T12:18:55.068Z,23.10
2019-04-14T12:21:23.977Z,23.00
2019-04-14T12:23:52.927Z,22.90
2019-04-14T12:26:21.944Z,22.80
2019-04-14T12:28:51.562Z,22.60
2019-04-14T12:31:21.761Z,22.60
2019-04-14T12:33:50.838Z,22.50
2019-04-14T12:36:20.176Z,22.50
2019-04-14T12:38:49.040Z,22.50
2019-04-14T12:41:23.970Z,22.40
2019-04-14T12:44:13.889Z,22.40
2019-04-14T12:47:05.902Z,22.50
2019-04-14T12:49:40.396Z,22.40
2019-04-14T12:52:21.495Z,22.50
2019-04-14T12:54:46.705Z,22.60
2019-04-14T12:57:17.287Z,22.50
2019-04-14T12:59:46.176Z,22.30
2019-04-14T13:02:18.628Z,22.40
2019-04-14T13:04:47.784Z,22.60
2019-04-14T13:07:16.629Z,22.80
2019-04-14T13:09:45.451Z,22.90
2019-04-14T13:12:14.330Z,23.00
2019-04-14T13:14:43.188Z,23.20
2019-04-14T13:17:12.104Z,23.30
2019-04-14T13:19:41.231Z,23.40
2019-04-14T13:22:10.292Z,23.50
2019-04-14T13:24:39.601Z,23.70
2019-04-14T13:27:08.595Z,23.80
2019-04-14T13:29:37.478Z,24.00
2019-04-14T13:32:06.979Z,24.10
2019-04-14T13:34:35.954Z,24.20
2019-04-14T13:37:04.966Z,24.20
2019-04-14T13:39:33.893Z,24.10
2019-04-14T13:42:02.844Z,23.90
2019-04-14T13:44:31.712Z,23.70
2019-04-14T13:47:00.699Z,23.70
2019-04-14T13:49:29.627Z,23.70
2019-04-14T13:51:58.624Z,23.80
2019-04-14T13:54:27.543Z,23.90
2019-04-14T13:56:56.493Z,23.90
2019-04-14T13:59:25.521Z,23.90
2019-04-14T14:01:54.460Z,23.80
2019-04-14T14:04:23.401Z,23.80
2019-04-14T14:06:52.316Z,23.90
2019-04-14T14:09:21.224Z,24.00
2019-04-14T14:12:04.640Z,24.10
2019-04-14T14:15:01.604Z,24.00
2019-04-14T14:17:49.586Z,23.80
2019-04-14T14:20:25.297Z,23.60
2019-04-14T14:23:31.216Z,23.60
2019-04-14T14:26:03.313Z,23.40
2019-04-14T14:28:32.185Z,23.30
2019-04-14T14:31:01.044Z,23.20
2019-04-14T14:33:29.913Z,23.20
2019-04-14T14:35:58.749Z,23.30
2019-04-14T14:38:27.672Z,23.40
2019-04-14T14:40:59.459Z,23.40
2019-04-14T14:43:28.391Z,23.30
2019-04-14T14:46:19.105Z,23.20
2019-04-14T14:48:55.615Z,23.30
2019-04-14T14:51:32.108Z,23.40
2019-04-14T14:54:01.071Z,23.50
2019-04-14T14:56:30.038Z,23.50
2019-04-14T14:58:58.948Z,23.50
2019-04-14T15:01:28.040Z,23.50
2019-04-14T15:03:57.005Z,23.50
2019-04-14T15:06:25.986Z,23.60
2019-04-14T15:08:54.885Z,23.50
2019-04-14T15:11:23.834Z,23.60
2019-04-14T15:13:52.861Z,23.60
2019-04-14T15:16:21.874Z,23.60
2019-04-14T15:18:50.873Z,23.60
2019-04-14T15:21:19.851Z,23.60
2019-04-14T15:23:48.732Z,23.60
2019-04-14T15:26:17.791Z,23.60
2019-04-14T15:28:46.769Z,23.50
2019-04-14T15:31:15.651Z,23.40
2019-04-14T15:33:44.593Z,23.40
2019-04-14T15:36:13.528Z,23.40
2019-04-14T15:38:42.399Z,23.40
2019-04-14T15:41:11.339Z,23.30
2019-04-14T15:43:40.303Z,23.30
2019-04-14T15:46:09.376Z,23.30
2019-04-14T15:48:38.360Z,23.50
2019-04-14T15:51:07.337Z,23.70
2019-04-14T15:53:38.145Z,23.80
2019-04-14T15:56:07.569Z,24.10
2019-04-14T15:58:53.894Z,24.20
2019-04-14T16:01:48.649Z,24.30
2019-04-14T16:04:36.643Z,24.30
2019-04-14T16:07:15.664Z,24.30
2019-04-14T16:10:06.788Z,24.30
2019-04-14T16:12:42.056Z,24.30
2019-04-14T16:15:23.536Z,24.30
2019-04-14T16:18:11.559Z,24.30
2019-04-14T16:20:42.289Z,24.30
2019-04-14T16:23:11.251Z,24.40
2019-04-14T16:26:05.420Z,24.30
2019-04-14T16:29:00.334Z,24.10
2019-04-14T16:31:47.778Z,24.00
2019-04-14T16:34:20.456Z,23.80
2019-04-14T16:36:49.854Z,23.70
2019-04-14T16:39:18.817Z,23.50
2019-04-14T16:41:47.817Z,23.40
2019-04-14T16:44:16.744Z,23.20
2019-04-14T16:46:45.667Z,23.00
2019-04-14T16:49:14.640Z,22.90
2019-04-14T16:51:48.238Z,22.80
2019-04-14T16:54:25.241Z,22.70
2019-04-14T16:57:09.052Z,22.60
2019-04-14T16:59:37.941Z,22.40
2019-04-14T17:02:10.975Z,22.30
2019-04-14T17:04:39.094Z,22.10
2019-04-14T17:07:08.086Z,21.90
2019-04-14T17:09:37.048Z,21.70
2019-04-14T17:12:05.898Z,21.50
2019-04-14T17:14:42.633Z,21.40
2019-04-14T17:17:45.692Z,21.30
2019-04-14T17:20:33.624Z,21.20
2019-04-14T17:23:19.516Z,21.00
2019-04-14T17:26:05.587Z,20.90
2019-04-14T17:28:56.709Z,20.80
2019-04-14T17:32:02.672Z,20.60
2019-04-14T17:34:38.012Z,20.40
2019-04-14T17:37:20.812Z,20.20
2019-04-14T17:39:53.677Z,20.10
2019-04-14T17:42:29.244Z,19.90
2019-04-14T17:45:08.067Z,19.70
2019-04-14T17:47:51.515Z,19.60
2019-04-14T17:50:41.379Z,19.40
2019-04-14T17:53:30.808Z,19.20
2019-04-14T17:56:09.199Z,19.00
2019-04-14T17:58:58.869Z,18.90
2019-04-14T18:01:38.225Z,18.70
2019-04-14T18:04:15.454Z,18.60
2019-04-14T18:07:03.477Z,18.50
2019-04-14T18:09:49.820Z,18.40
2019-04-14T18:12:28.591Z,18.20
2019-04-14T18:15:05.220Z,18.10
2019-04-14T18:17:41.972Z,18.00
2019-04-14T18:20:15.851Z,17.90
2019-04-14T18:22:44.856Z,17.80
2019-04-14T18:25:13.887Z,17.60
2019-04-14T18:28:03.086Z,17.50
2019-04-14T18:30:36.226Z,17.30
2019-04-14T18:33:14.017Z,17.20
2019-04-14T18:36:05.045Z,17.10
2019-04-14T18:38:51.675Z,17.00
2019-04-14T18:41:48.746Z,16.90
2019-04-14T18:44:25.715Z,16.80
2019-04-14T18:47:25.652Z,16.60
2019-04-14T18:50:16.796Z,16.50
2019-04-14T18:53:00.152Z,16.30
2019-04-14T18:55:39.020Z,16.30
2019-04-14T18:58:23.369Z,16.10
2019-04-14T19:00:55.494Z,16.00
2019-04-14T19:03:24.299Z,15.90
2019-04-14T19:05:53.207Z,15.80
2019-04-14T19:08:22.216Z,15.70
2019-04-14T19:11:08.647Z,15.60
2019-04-14T19:13:37.788Z,15.50
2019-04-14T19:16:19.828Z,15.40
2019-04-14T19:18:51.417Z,15.30
2019-04-14T19:21:23.456Z,15.20
2019-04-14T19:23:53.691Z,15.10
2019-04-14T19:26:22.711Z,15.00
2019-04-14T19:28:51.778Z,14.90
2019-04-14T19:31:20.613Z,14.80
2019-04-14T19:33:49.669Z,14.70
2019-04-14T19:36:18.698Z,14.50
2019-04-14T19:38:47.691Z,14.40
2019-04-14T19:41:16.660Z,14.30
2019-04-14T19:43:45.697Z,14.20
2019-04-14T19:46:14.684Z,14.10
2019-04-14T19:48:43.733Z,14.00
2019-04-14T19:51:12.642Z,13.90
2019-04-14T19:53:41.538Z,13.80
2019-04-14T19:56:10.475Z,13.80
2019-04-14T19:58:39.351Z,13.70
2019-04-14T20:01:08.415Z,13.60
2019-04-14T20:03:37.382Z,13.60
2019-04-14T20:06:06.491Z,13.50
2019-04-14T20:08:35.546Z,13.40
2019-04-14T20:11:04.692Z,13.40
2019-04-14T20:13:38.375Z,13.20
2019-04-14T20:16:28.257Z,13.20
2019-04-14T20:19:19.389Z,13.10
2019-04-14T20:22:07.364Z,13.00
2019-04-14T20:25:01.300Z,12.90
2019-04-14T20:27:37.388Z,12.90
2019-04-14T20:30:13.884Z,12.80
2019-04-14T20:32:43.508Z,12.70
2019-04-14T20:35:31.744Z,12.70
2019-04-14T20:38:00.740Z,12.60
2019-04-14T20:40:29.683Z,12.50
2019-04-14T20:42:58.712Z,12.40
2019-04-14T20:45:27.669Z,12.30
2019-04-14T20:47:56.892Z,12.30
2019-04-14T20:50:25.826Z,12.20
2019-04-14T20:52:54.616Z,12.10
2019-04-14T20:55:23.547Z,12.00
2019-04-14T20:57:52.497Z,12.00
2019-04-14T21:00:22.081Z,11.90
2019-04-14T21:03:28.143Z,11.90
2019-04-14T21:06:14.143Z,11.80
2019-04-14T21:09:00.890Z,11.70
2019-04-14T21:11:34.115Z,11.60
2019-04-14T21:14:28.176Z,11.50
2019-04-14T21:17:15.300Z,11.40
2019-04-14T21:20:03.329Z,11.40
2019-04-14T21:22:50.044Z,11.30
2019-04-14T21:25:59.298Z,11.30
2019-04-14T21:28:35.797Z,11.20
2019-04-14T21:31:17.095Z,11.10
2019-04-14T21:33:57.624Z,11.10
2019-04-14T21:36:31.170Z,11.00
2019-04-14T21:39:10.706Z,11.00
2019-04-14T21:41:39.733Z,10.90
2019-04-14T21:44:09.861Z,10.90
2019-04-14T21:46:38.826Z,10.80
2019-04-14T21:49:07.708Z,10.70
2019-04-14T21:52:03.496Z,10.70
2019-04-14T21:54:33.742Z,10.60
2019-04-14T21:57:23.097Z,10.60
2019-04-14T22:00:19.518Z,10.60
2019-04-14T22:03:06.307Z,10.50
2019-04-14T22:06:03.646Z,10.50
2019-04-14T22:08:36.142Z,10.50
2019-04-14T22:11:07.939Z,10.50
2019-04-14T22:13:36.936Z,10.40
2019-04-14T22:16:06.185Z,10.30
2019-04-14T22:18:35.137Z,10.30
2019-04-14T22:21:04.194Z,10.20
2019-04-14T22:23:33.291Z,10.20
2019-04-14T22:26:02.114Z,10.20
2019-04-14T22:28:31.027Z,10.20
2019-04-14T22:31:00.099Z,10.10
2019-04-14T22:33:29.096Z,10.00
2019-04-14T22:35:58.040Z,10.00
2019-04-14T22:38:26.980Z,10.00
2019-04-14T22:40:56.025Z,10.00
2019-04-14T22:43:24.927Z,9.90
2019-04-14T22:45:53.844Z,9.90
2019-04-14T22:48:22.665Z,9.80
2019-04-14T22:50:51.565Z,9.80
2019-04-14T22:53:20.541Z,9.80
2019-04-14T22:55:49.509Z,9.70
2019-04-14T22:58:18.510Z,9.70
2019-04-14T23:00:57.255Z,9.60
2019-04-14T23:03:34.785Z,9.70
2019-04-14T23:06:22.737Z,9.60
2019-04-14T23:08:55.236Z,9.50
2019-04-14T23:11:47.250Z,9.50
2019-04-14T23:14:27.506Z,9.50
2019-04-14T23:17:14.346Z,9.40
2019-04-14T23:19:47.088Z,9.40
2019-04-14T23:22:22.707Z,9.40
2019-04-14T23:24:51.715Z,9.30
2019-04-14T23:27:20.699Z,9.30
2019-04-14T23:29:50.937Z,9.20
2019-04-14T23:32:20.020Z,9.20
2019-04-14T23:34:48.940Z,9.10
2019-04-14T23:37:18.188Z,9.10
2019-04-14T23:39:47.139Z,9.10
2019-04-14T23:42:16.136Z,9.10
2019-04-14T23:44:45.024Z,9.00
2019-04-14T23:47:13.937Z,9.00
2019-04-14T23:49:43.017Z,9.00
2019-04-14T23:52:11.933Z,9.00
2019-04-14T23:54:40.878Z,8.90
2019-04-14T23:57:09.819Z,9.00
2019-04-14T23:59:38.711Z,8.90
